createdAt,value
2022-10-18T00:00:07.079Z,96866.91
2022-10-18T00:02:54.993Z,96866.30
2022-10-18T00:05:21.668Z,96869.10
2022-10-18T00:07:48.347Z,96863.92
2022-10-18T00:10:14.982Z,96864.45
2022-10-18T00:12:42.147Z,96865.61
2022-10-18T00:15:10.608Z,96859.40
2022-10-18T00:17:38.962Z,96863.19
2022-10-18T00:20:06.771Z,96862.04
2022-10-18T00:22:34.891Z,96859.90
2022-10-18T00:25:01.695Z,96861.23
2022-10-18T00:27:29.788Z,96857.69
2022-10-18T00:29:56.665Z,96850.27
2022-10-18T00:32:24.548Z,96848.81
2022-10-18T00:34:51.392Z,96848.80
2022-10-18T00:37:18.575Z,96850.03
2022-10-18T00:39:45.393Z,96846.64
2022-10-18T00:42:20.649Z,96844.45
2022-10-18T00:44:50.431Z,96842.94
2022-10-18T00:47:19.099Z,96837.75
2022-10-18T00:49:51.220Z,96837.48
2022-10-18T00:52:23.652Z,96835.48
2022-10-18T00:54:51.642Z,96836.05
2022-10-18T00:57:18.898Z,96833.31
2022-10-18T00:59:47.038Z,96833.39
2022-10-18T01:02:17.599Z,96831.01
2022-10-18T01:04:45.939Z,96829.85
2022-10-18T01:07:24.780Z,96830.19
2022-10-18T01:10:09.585Z,96827.70
2022-10-18T01:12:43.112Z,96821.86
2022-10-18T01:15:34.312Z,96815.96
2022-10-18T01:18:21.638Z,96815.25
2022-10-18T01:20:51.279Z,96814.45
2022-10-18T01:23:43.082Z,96810.80
2022-10-18T01:26:35.095Z,96811.14
2022-10-18T01:29:08.663Z,96812.64
2022-10-18T01:31:51.125Z,96811.30
2022-10-18T01:34:19.406Z,96812.84
2022-10-18T01:36:52.234Z,96809.06
2022-10-18T01:39:29.230Z,96807.67
2022-10-18T01:41:58.928Z,96801.16
2022-10-18T01:44:29.235Z,96801.84
2022-10-18T01:46:58.165Z,96801.52
2022-10-18T01:49:26.280Z,96795.84
2022-10-18T01:51:53.646Z,96793.33
2022-10-18T01:54:30.985Z,96793.96
2022-10-18T01:57:03.465Z,96792.79
2022-10-18T01:59:38.086Z,96794.02
2022-10-18T02:02:36.099Z,96793.63
2022-10-18T02:05:27.550Z,96788.21
2022-10-18T02:08:19.287Z,96783.88
2022-10-18T02:11:08.973Z,96786.02
2022-10-18T02:13:41.636Z,96785.15
2022-10-18T02:16:17.418Z,96783.86
2022-10-18T02:19:07.952Z,96781.26
2022-10-18T02:21:37.790Z,96780.96
2022-10-18T02:24:06.436Z,96779.56
2022-10-18T02:26:33.331Z,96775.85
2022-10-18T02:29:00.079Z,96777.13
2022-10-18T02:31:35.944Z,96774.55
2022-10-18T02:34:13.644Z,96775.14
2022-10-18T02:36:45.596Z,96777.77
2022-10-18T02:39:17.145Z,96774.41
2022-10-18T02:41:43.976Z,96776.56
2022-10-18T02:44:10.810Z,96774.11
2022-10-18T02:46:38.819Z,96778.11
2022-10-18T02:49:05.903Z,96771.23
2022-10-18T02:51:33.915Z,96771.23
2022-10-18T02:54:00.562Z,96769.75
2022-10-18T02:56:27.364Z,96767.10
2022-10-18T02:58:54.026Z,96768.88
2022-10-18T03:01:20.829Z,96767.00
2022-10-18T03:03:48.199Z,96766.86
2022-10-18T03:06:15.113Z,96771.66
2022-10-18T03:08:41.811Z,96772.81
2022-10-18T03:11:08.668Z,96767.95
2022-10-18T03:13:35.366Z,96765.81
2022-10-18T03:16:02.054Z,96767.07
2022-10-18T03:18:28.884Z,96767.48
2022-10-18T03:20:55.506Z,96769.21
2022-10-18T03:23:22.141Z,96772.29
2022-10-18T03:25:49.084Z,96769.45
2022-10-18T03:28:15.797Z,96765.92
2022-10-18T03:30:42.746Z,96765.03
2022-10-18T03:33:09.542Z,96765.89
2022-10-18T03:35:36.171Z,96761.88
2022-10-18T03:38:02.879Z,96762.08
2022-10-18T03:43:01.318Z,96757.23
2022-10-18T03:45:31.188Z,96759.66
2022-10-18T03:47:58.502Z,96756.81
2022-10-18T03:50:25.323Z,96759.40
2022-10-18T03:52:53.628Z,96757.67
2022-10-18T03:55:20.760Z,96759.57
2022-10-18T03:57:47.458Z,96757.36
2022-10-18T04:00:14.543Z,96754.25
2022-10-18T04:02:41.368Z,96752.09
2022-10-18T04:05:08.676Z,96747.38
2022-10-18T04:10:08.363Z,96750.48
2022-10-18T04:12:35.372Z,96747.55
2022-10-18T04:15:03.072Z,96745.80
2022-10-18T04:17:30.186Z,96740.23
2022-10-18T04:19:57.089Z,96739.81
2022-10-18T04:22:23.854Z,96740.59
2022-10-18T04:24:52.722Z,96741.78
2022-10-18T04:27:19.524Z,96744.29
2022-10-18T04:29:46.265Z,96742.67
2022-10-18T04:32:13.083Z,96745.42
2022-10-18T04:34:39.872Z,96748.38
2022-10-18T04:37:06.654Z,96743.90
2022-10-18T04:39:33.506Z,96742.50
2022-10-18T04:42:00.255Z,96744.63
2022-10-18T04:44:27.468Z,96743.88
2022-10-18T04:46:54.930Z,96736.00
2022-10-18T04:49:24.405Z,96737.41
2022-10-18T04:51:52.342Z,96730.45
2022-10-18T04:54:19.263Z,96732.98
2022-10-18T04:56:46.242Z,96730.02
2022-10-18T04:59:15.408Z,96727.86
2022-10-18T05:01:42.965Z,96726.44
2022-10-18T05:04:12.048Z,96729.63
2022-10-18T05:06:39.314Z,96729.19
2022-10-18T05:09:06.676Z,96726.95
2022-10-18T05:11:36.727Z,96725.13
2022-10-18T05:14:04.568Z,96721.45
2022-10-18T05:16:35.766Z,96727.79
2022-10-18T05:19:08.004Z,96724.13
2022-10-18T05:21:38.518Z,96720.77
2022-10-18T05:24:07.092Z,96717.89
2022-10-18T05:26:35.951Z,96716.91
2022-10-18T10:18:03.914Z,96534.65
2022-10-18T10:21:00.194Z,96534.52
2022-10-18T10:23:36.924Z,96533.97
2022-10-18T10:26:21.052Z,96528.48
2022-10-18T10:28:48.949Z,96526.39
2022-10-18T10:31:25.572Z,96524.55
2022-10-18T10:34:15.026Z,96519.34
2022-10-18T10:36:50.919Z,96514.11
2022-10-18T10:39:20.344Z,96508.20
2022-10-18T10:41:56.643Z,96501.87
2022-10-18T10:44:30.302Z,96493.88
2022-10-18T10:46:59.356Z,96492.02
2022-10-18T10:49:43.018Z,96486.27
2022-10-18T10:52:29.186Z,96483.53
2022-10-18T10:55:23.224Z,96481.47
2022-10-18T10:57:56.397Z,96480.07
2022-10-18T11:00:44.334Z,96474.33
2022-10-18T11:03:28.658Z,96474.73
2022-10-18T11:06:00.056Z,96476.30
2022-10-18T11:08:35.279Z,96475.43
2022-10-18T11:11:16.028Z,96467.38
2022-10-18T11:13:56.935Z,96465.69
2022-10-18T11:16:56.910Z,96462.33
2022-10-18T11:19:39.053Z,96458.07
2022-10-18T11:22:18.925Z,96460.00
2022-10-18T11:24:49.986Z,96457.17
2022-10-18T11:27:28.223Z,96455.88
2022-10-18T11:30:07.008Z,96454.50
2022-10-18T11:32:47.151Z,96452.66
2022-10-18T11:35:39.899Z,96453.52
2022-10-18T11:38:15.582Z,96451.88
2022-10-18T11:41:05.974Z,96449.81
2022-10-18T11:44:02.122Z,96439.87
2022-10-18T11:46:48.940Z,96436.23
2022-10-18T11:49:35.770Z,96432.83
2022-10-18T11:52:08.755Z,96428.50
2022-10-18T11:55:07.133Z,96429.73
2022-10-18T11:57:50.149Z,96424.08
2022-10-18T12:00:31.715Z,96425.89
2022-10-18T12:03:15.836Z,96422.93
2022-10-18T12:05:45.562Z,96420.08
2022-10-18T12:08:22.378Z,96421.29
2022-10-18T12:11:05.865Z,96417.65
2022-10-18T12:13:40.677Z,96418.35
2022-10-18T12:16:10.533Z,96413.30
2022-10-18T12:21:26.394Z,96413.81
2022-10-18T12:23:59.155Z,96408.08
2022-10-18T12:26:31.893Z,96401.23
2022-10-18T12:29:08.101Z,96405.34
2022-10-18T12:31:41.858Z,96401.59
2022-10-18T12:34:24.208Z,96398.31
2022-10-18T12:37:21.888Z,96397.90
2022-10-18T12:40:10.197Z,96393.31
2022-10-18T12:42:49.742Z,96391.13
2022-10-18T12:45:34.600Z,96388.46
2022-10-18T12:48:27.890Z,96386.11
2022-10-18T12:51:14.757Z,96378.52
2022-10-18T12:53:45.555Z,96376.30
2022-10-18T12:56:28.997Z,96375.21
2022-10-18T12:59:16.051Z,96373.89
2022-10-18T13:02:05.909Z,96370.69
2022-10-18T13:04:34.687Z,96363.13
2022-10-18T13:07:07.801Z,96360.89
2022-10-18T13:09:48.695Z,96357.98
2022-10-18T13:12:15.813Z,96360.22
2022-10-18T13:15:24.144Z,96355.84
2022-10-18T13:17:58.813Z,96348.67
2022-10-18T13:20:48.060Z,96343.06
2022-10-18T13:23:35.466Z,96347.95
2022-10-18T13:26:33.634Z,96345.73
2022-10-18T13:29:12.815Z,96338.42
2022-10-18T13:31:47.300Z,96333.46
2022-10-18T13:34:16.773Z,96325.00
2022-10-18T13:36:43.623Z,96327.58
2022-10-18T13:39:19.701Z,96322.92
2022-10-18T13:41:46.313Z,96321.14
2022-10-18T13:44:31.223Z,96318.29
2022-10-18T13:46:57.983Z,96316.45
2022-10-18T13:49:47.055Z,96313.99
2022-10-18T13:52:36.067Z,96312.56
2022-10-18T13:55:27.874Z,96313.40
2022-10-18T13:58:03.748Z,96312.36
2022-10-18T14:01:11.487Z,96307.89
2022-10-18T14:04:26.129Z,96299.70
2022-10-18T14:07:02.225Z,96297.44
2022-10-18T14:09:52.514Z,96298.08
2022-10-18T14:12:28.059Z,96295.59
2022-10-18T14:15:20.153Z,96293.58
2022-10-18T14:18:20.338Z,96289.88
2022-10-18T14:21:12.948Z,96292.14
2022-10-18T14:23:44.146Z,96290.33
2022-10-18T14:26:19.987Z,96289.21
2022-10-18T14:29:05.297Z,96287.99
2022-10-18T14:31:32.680Z,96284.66
2022-10-18T14:34:00.646Z,96279.33
2022-10-18T14:36:33.359Z,96279.79
2022-10-18T14:39:03.882Z,96281.33
2022-10-18T14:41:32.908Z,96275.66
2022-10-18T14:44:14.827Z,96278.73
2022-10-18T14:47:15.953Z,96276.33
2022-10-18T14:49:46.149Z,96274.48
2022-10-18T14:52:18.684Z,96272.14
2022-10-18T14:54:46.295Z,96270.35
2022-10-18T14:57:24.474Z,96267.73
2022-10-18T14:59:58.877Z,96265.13
2022-10-18T15:02:26.259Z,96259.57
2022-10-18T15:04:59.754Z,96258.22
2022-10-18T15:07:30.224Z,96252.35
2022-10-18T15:09:59.894Z,96248.25
2022-10-18T15:12:36.931Z,96244.76
2022-10-18T15:15:19.617Z,96243.88
2022-10-18T15:17:48.898Z,96241.60
2022-10-18T15:20:21.428Z,96244.44
2022-10-18T15:22:48.373Z,96240.16
2022-10-18T15:25:26.758Z,96240.45
2022-10-18T15:27:57.890Z,96239.14
2022-10-18T15:30:28.394Z,96236.30
2022-10-18T15:33:01.575Z,96235.29
2022-10-18T15:35:31.613Z,96234.73
2022-10-18T15:38:04.293Z,96228.96
2022-10-18T15:40:34.941Z,96233.05
2022-10-18T15:43:05.499Z,96230.83
2022-10-18T15:45:35.929Z,96230.14
2022-10-18T15:48:05.763Z,96227.09
2022-10-18T15:50:40.604Z,96228.96
2022-10-18T15:53:38.413Z,96228.45
2022-10-18T15:56:07.086Z,96228.19
2022-10-18T15:58:40.613Z,96228.31
2022-10-18T16:01:21.973Z,96225.25
2022-10-18T16:03:50.975Z,96223.61
2022-10-18T16:06:23.004Z,96226.61
2022-10-18T16:08:54.981Z,96228.09
2022-10-18T16:11:24.261Z,96231.72
2022-10-18T16:14:00.557Z,96231.73
2022-10-18T16:16:28.791Z,96230.27
2022-10-18T16:18:55.749Z,96235.41
2022-10-18T16:21:28.972Z,96235.07
2022-10-18T16:23:56.164Z,96234.59
2022-10-18T16:26:23.941Z,96236.39
2022-10-18T16:28:50.793Z,96241.33
2022-10-18T16:31:20.419Z,96239.82
2022-10-18T16:33:47.887Z,96236.00
2022-10-18T16:36:20.335Z,96237.69
2022-10-18T16:38:48.104Z,96239.63
2022-10-18T16:41:18.231Z,96242.65
2022-10-18T16:43:46.964Z,96246.25
2022-10-18T16:46:17.373Z,96248.39
2022-10-18T16:48:45.328Z,96248.65
2022-10-18T16:51:12.165Z,96250.30
2022-10-18T16:53:40.617Z,96247.38
2022-10-18T16:56:13.904Z,96245.67
2022-10-18T16:58:40.867Z,96246.43
2022-10-18T17:01:15.557Z,96245.67
2022-10-18T17:03:43.337Z,96246.25
2022-10-18T17:06:17.817Z,96248.02
2022-10-18T17:08:44.673Z,96247.70
2022-10-18T17:11:13.171Z,96245.06
2022-10-18T17:13:40.507Z,96243.65
2022-10-18T17:16:30.522Z,96245.44
2022-10-18T17:18:59.687Z,96240.67
2022-10-18T17:21:28.179Z,96242.45
2022-10-18T17:23:59.798Z,96237.80
2022-10-18T17:26:29.759Z,96239.09
2022-10-18T17:29:00.264Z,96239.38
2022-10-18T17:31:28.542Z,96236.40
2022-10-18T17:33:57.800Z,96232.11
2022-10-18T17:36:25.515Z,96227.80
2022-10-18T17:38:54.509Z,96225.67
2022-10-18T17:41:21.655Z,96224.52
2022-10-18T17:43:48.853Z,96223.61
2022-10-18T17:46:17.228Z,96223.64
2022-10-18T17:48:44.092Z,96218.46
2022-10-18T17:51:13.322Z,96217.64
2022-10-18T17:53:40.819Z,96215.30
2022-10-18T17:56:08.169Z,96213.52
2022-10-18T17:58:35.568Z,96214.52
2022-10-18T18:01:21.194Z,96213.11
2022-10-18T18:03:48.745Z,96215.31
2022-10-18T18:06:19.390Z,96216.17
2022-10-18T18:08:48.056Z,96213.92
2022-10-18T18:11:15.639Z,96211.75
2022-10-18T18:13:42.513Z,96210.67
2022-10-18T18:16:18.453Z,96206.60
2022-10-18T18:18:46.890Z,96205.48
2022-10-18T18:21:13.831Z,96203.20
2022-10-18T18:23:41.030Z,96204.02
2022-10-18T18:26:08.097Z,96199.65
2022-10-18T18:28:35.710Z,96197.80
2022-10-18T18:31:10.535Z,96196.25
2022-10-18T18:33:37.520Z,96198.00
2022-10-18T18:36:06.363Z,96197.14
2022-10-18T18:38:34.935Z,96192.30
2022-10-18T18:41:14.581Z,96187.83
2022-10-18T18:43:44.996Z,96188.69
2022-10-18T18:46:12.676Z,96190.20
2022-10-18T18:48:40.402Z,96189.46
2022-10-18T18:51:12.444Z,96191.28
2022-10-18T18:53:40.819Z,96189.10
2022-10-18T18:56:10.557Z,96184.77
2022-10-18T18:58:38.939Z,96183.10
2022-10-18T19:01:11.458Z,96183.09
2022-10-18T19:03:39.759Z,96182.75
2022-10-18T19:06:13.881Z,96182.77
2022-10-18T19:08:41.596Z,96182.92
2022-10-18T19:11:09.350Z,96184.02
2022-10-18T19:13:36.761Z,96182.33
2022-10-18T19:16:18.820Z,96181.29
2022-10-18T19:18:58.482Z,96180.91
2022-10-18T19:21:28.324Z,96180.94
2022-10-18T19:23:56.421Z,96179.38
2022-10-18T19:26:27.710Z,96176.54
2022-10-18T19:28:54.808Z,96177.33
2022-10-18T19:31:22.486Z,96177.37
2022-10-18T19:33:59.331Z,96173.33
2022-10-18T19:36:27.786Z,96177.02
2022-10-18T19:38:54.652Z,96168.32
2022-10-18T19:41:23.313Z,96162.60
2022-10-18T19:43:50.957Z,96159.98
2022-10-18T19:46:17.990Z,96160.11
2022-10-18T19:48:44.813Z,96157.00
2022-10-18T19:51:15.995Z,96159.16
2022-10-18T19:53:46.517Z,96160.77
2022-10-18T19:56:18.195Z,96161.95
2022-10-18T19:58:45.678Z,96157.74
2022-10-18T20:01:12.919Z,96159.58
2022-10-18T20:03:39.823Z,96163.15
2022-10-18T20:06:06.579Z,96161.60
2022-10-18T20:08:34.886Z,96165.91
2022-10-18T20:11:07.507Z,96163.67
2022-10-18T20:13:35.047Z,96162.31
2022-10-18T20:16:03.523Z,96161.97
2022-10-18T20:18:30.250Z,96160.23
2022-10-18T20:20:56.894Z,96158.16
2022-10-18T20:23:23.875Z,96158.13
2022-10-18T20:26:02.141Z,96151.63
2022-10-18T20:28:29.118Z,96152.45
2022-10-18T20:31:05.730Z,96151.59
2022-10-18T20:33:33.775Z,96150.05
2022-10-18T20:36:06.238Z,96148.52
2022-10-18T20:38:38.318Z,96146.84
2022-10-18T20:41:09.510Z,96145.83
2022-10-18T20:43:36.945Z,96144.80
2022-10-18T20:46:04.964Z,96141.92
2022-10-18T20:48:33.112Z,96145.89
2022-10-18T20:51:08.980Z,96138.61
2022-10-18T20:53:36.635Z,96127.87
2022-10-18T20:56:08.912Z,96125.84
2022-10-18T20:58:37.414Z,96120.22
2022-10-18T21:01:16.595Z,96119.20
2022-10-18T21:03:45.603Z,96118.26
2022-10-18T21:06:18.209Z,96122.61
2022-10-18T21:08:45.529Z,96119.96
2022-10-18T21:11:12.980Z,96121.73
2022-10-18T21:13:42.422Z,96118.80
2022-10-18T21:16:09.235Z,96117.38
2022-10-18T21:18:37.478Z,96113.99
2022-10-18T21:21:08.583Z,96116.55
2022-10-18T21:23:35.509Z,96108.91
2022-10-18T21:26:02.446Z,96103.65
2022-10-18T21:28:29.205Z,96102.15
2022-10-18T21:30:57.277Z,96097.16
2022-10-18T21:33:23.931Z,96096.75
2022-10-18T21:35:50.589Z,96092.91
2022-10-18T21:38:17.249Z,96092.48
2022-10-18T21:40:44.003Z,96093.84
2022-10-18T21:43:11.226Z,96093.97
2022-10-18T21:45:37.775Z,96084.86
2022-10-18T21:48:04.515Z,96082.27
2022-10-18T21:50:33.382Z,96082.29
2022-10-18T21:52:59.947Z,96079.27
2022-10-18T21:55:26.529Z,96072.47
2022-10-18T21:57:53.074Z,96073.56
2022-10-18T22:00:19.720Z,96066.08
2022-10-18T22:02:46.371Z,96066.79
2022-10-18T22:05:12.966Z,96062.62
2022-10-18T22:07:39.575Z,96059.62
2022-10-18T22:10:06.499Z,96058.55
2022-10-18T22:12:33.172Z,96049.98
2022-10-18T22:15:01.760Z,96045.70
2022-10-18T22:17:28.369Z,96040.69
2022-10-18T22:19:54.980Z,96038.23
2022-10-18T22:22:22.895Z,96038.54
2022-10-18T22:24:49.504Z,96034.97
2022-10-18T22:27:16.086Z,96032.70
2022-10-18T22:29:42.784Z,96032.37
2022-10-18T22:32:09.384Z,96032.29
2022-10-18T22:34:36.191Z,96024.56
2022-10-18T22:37:02.946Z,96025.40
2022-10-18T22:39:29.572Z,96020.46
2022-10-18T22:41:56.921Z,96018.88
2022-10-18T22:44:24.517Z,96016.60
2022-10-18T22:46:51.206Z,96014.94
2022-10-18T22:49:18.121Z,96013.82
2022-10-18T22:51:44.853Z,96015.27
2022-10-18T22:54:11.420Z,96012.39
2022-10-18T22:56:38.095Z,96009.42
2022-10-18T22:59:05.587Z,96007.86
2022-10-18T23:01:33.557Z,96009.62
2022-10-18T23:04:01.959Z,96009.63
2022-10-18T23:06:34.401Z,96010.02
2022-10-18T23:09:06.850Z,96003.71
2022-10-18T23:11:35.012Z,96002.04
2022-10-18T23:14:03.351Z,96002.39
2022-10-18T23:16:30.986Z,96005.27
2022-10-18T23:18:57.974Z,96005.77
2022-10-18T23:21:27.673Z,96000.27
2022-10-18T23:23:55.662Z,95995.73
2022-10-18T23:26:25.144Z,95994.39
2022-10-18T23:28:53.427Z,95994.52
2022-10-18T23:31:27.299Z,95996.04
2022-10-18T23:33:56.600Z,95994.55
2022-10-18T23:36:23.881Z,95994.64
2022-10-18T23:38:51.262Z,95992.39
2022-10-18T23:41:18.358Z,95993.06
2022-10-18T23:43:45.613Z,95996.74
2022-10-18T23:46:15.290Z,95997.01
2022-10-18T23:48:41.990Z,95993.30
2022-10-18T23:51:09.182Z,95995.90
2022-10-18T23:53:36.318Z,95995.29
2022-10-18T23:56:09.375Z,95997.65
2022-10-18T23:58:37.348Z,95999.41
